Time;durP1;ratioP1;P1;durP2;ratioP2;P2;SDS_P1;SDS_P2;PMS_P1;PMS_P2;Temp;Humidity;BMP_temperature;BMP_pressure;BME280_temperature;BME280_humidity;BME280_pressure;Samples;Min_cycle;Max_cycle;Signal;HPM_P1;HPM_P2
2022/03/03 00:01:54;;;;;;;;;;;;;;;0.29;100.00;99123.27;1734240;80;22686;-62
2022/03/03 00:04:20;;;;;;;;;;;;;;;0.29;100.00;99117.34;1747633;81;20797;-61
2022/03/03 00:06:46;;;;;;;;;;;;;;;0.30;100.00;99123.02;1721502;83;20126;-62
2022/03/03 00:09:13;;;;;;;;;;;;;;;0.32;100.00;99117.36;1748160;82;20135;-62
2022/03/03 00:11:39;;;;;;;;;;;;;;;0.32;100.00;99113.30;1748101;80;20135;-62
2022/03/03 00:14:05;;;;;;;;;;;;;;;0.31;100.00;99115.19;1722425;83;21146;-62
2022/03/03 00:16:33;;;;;;;;;;;;;;;0.33;100.00;99109.53;1728170;81;20117;-62
2022/03/03 00:18:59;;;;;;;;;;;;;;;0.32;100.00;99107.91;1710878;84;20292;-62
2022/03/03 00:21:25;;;;;;;;;;;;;;;0.29;100.00;99107.89;1726562;83;20226;-62
2022/03/03 00:23:51;;;;;;;;;;;;;;;0.25;100.00;99108.66;1723521;83;20482;-62
2022/03/03 00:26:19;;;;;;;;;;;;;;;0.23;100.00;99110.81;1723369;83;21107;-62
2022/03/03 00:28:46;;;;;;;;;;;;;;;0.26;100.00;99108.94;1710087;84;20117;-62
2022/03/03 00:31:12;;;;;;;;;;;;;;;0.28;100.00;99104.91;1726369;83;20125;-62
2022/03/03 00:33:40;;;;;;;;;;;;;;;0.29;100.00;99111.13;1726325;83;20158;-62
2022/03/03 00:36:06;;;;;;;;;;;;;;;0.28;100.00;99106.80;1723323;83;20161;-61
2022/03/03 00:38:33;;;;;;;;;;;;;;;0.25;100.00;99105.42;1710999;84;21908;-62
2022/03/03 00:40:59;;;;;;;;;;;;;;;0.23;100.00;99113.51;1726538;83;20180;-61
2022/03/03 00:43:26;;;;;;;;;;;;;;;0.22;100.00;99102.43;1723275;83;20156;-62
2022/03/03 00:45:52;;;;;;;;;;;;;;;0.21;100.00;99104.31;1710981;84;20178;-61
2022/03/03 00:48:18;;;;;;;;;;;;;;;0.21;100.00;99107.55;1664312;86;20488;-61
2022/03/03 00:50:45;;;;;;;;;;;;;;;0.23;100.00;99101.36;1693656;84;22348;-61
2022/03/03 00:53:11;;;;;;;;;;;;;;;0.23;100.00;99098.66;1700617;84;21732;-61
2022/03/03 00:55:39;;;;;;;;;;;;;;;0.21;100.00;99094.06;1726179;83;20173;-61
2022/03/03 00:58:06;;;;;;;;;;;;;;;0.19;100.00;99093.50;1725417;81;20116;-61
2022/03/03 01:00:33;;;;;;;;;;;;;;;0.18;100.00;99092.69;1723379;83;20180;-61
2022/03/03 01:03:01;;;;;;;;;;;;;;;0.18;100.00;99087.83;1760198;80;21144;-61
2022/03/03 01:05:28;;;;;;;;;;;;;;;0.19;100.00;99089.45;1776289;80;20767;-61
2022/03/03 01:07:56;;;;;;;;;;;;;;;0.21;100.00;99084.61;1776546;79;20173;-63
2022/03/03 01:10:22;;;;;;;;;;;;;;;0.20;100.00;99085.14;1776385;80;20223;-62
2022/03/03 01:12:50;;;;;;;;;;;;;;;0.18;100.00;99084.59;1776950;79;20141;-62
2022/03/03 01:15:16;;;;;;;;;;;;;;;0.19;100.00;99075.95;1768933;80;21148;-62
2022/03/03 01:17:43;;;;;;;;;;;;;;;0.19;100.00;99087.56;1764211;81;20196;-63
2022/03/03 01:20:12;;;;;;;;;;;;;;;0.20;100.00;99080.28;1764226;80;20220;-63
2022/03/03 01:22:39;;;;;;;;;;;;;;;0.22;100.00;99088.94;1761092;81;20185;-63
2022/03/03 01:25:06;;;;;;;;;;;;;;;0.20;100.00;99084.33;1761683;81;20204;-63
2022/03/03 01:27:33;;;;;;;;;;;;;;;0.21;100.00;99084.07;1748342;82;21789;-63
2022/03/03 01:29:59;;;;;;;;;;;;;;;0.21;100.00;99087.31;1763993;81;20144;-63
2022/03/03 01:32:27;;;;;;;;;;;;;;;0.20;100.00;99088.38;1764120;80;20172;-63
2022/03/03 01:34:53;;;;;;;;;;;;;;;0.18;100.00;99084.59;1748607;81;20489;-63
2022/03/03 01:37:20;;;;;;;;;;;;;;;0.19;100.00;99086.75;1729916;83;20197;-63
2022/03/03 01:39:46;;;;;;;;;;;;;;;0.17;100.00;99078.91;1730821;83;23331;-63
2022/03/03 01:42:15;;;;;;;;;;;;;;;0.14;100.00;99070.52;1730665;83;20151;-63
2022/03/03 01:44:43;;;;;;;;;;;;;;;0.12;100.00;99076.17;1730866;83;20211;-63
2022/03/03 01:47:20;;;;;;;;;;;;;;;0.12;100.00;99072.13;1730963;83;20172;-63
2022/03/03 01:49:47;;;;;;;;;;;;;;;0.12;100.00;99071.31;1730881;83;20597;-63
2022/03/03 01:52:16;;;;;;;;;;;;;;;0.12;100.00;99070.78;1730820;83;21126;-63
2022/03/03 01:54:42;;;;;;;;;;;;;;;0.13;100.00;99065.66;1730324;82;20097;-63
2022/03/03 01:57:09;;;;;;;;;;;;;;;0.13;100.00;99064.31;1751921;81;20180;-63
2022/03/03 01:59:38;;;;;;;;;;;;;;;0.18;100.00;99064.88;1727739;83;20137;-63
2022/03/03 02:02:06;;;;;;;;;;;;;;;0.17;100.00;99065.42;1678936;84;20212;-62
2022/03/03 02:04:32;;;;;;;;;;;;;;;0.17;100.00;99072.70;1711214;84;21955;-63
2022/03/03 02:07:00;;;;;;;;;;;;;;;0.16;100.00;99066.48;1711052;83;20126;-63
2022/03/03 02:09:26;;;;;;;;;;;;;;;0.15;100.00;99065.40;1711158;84;20101;-63
2022/03/03 02:11:53;;;;;;;;;;;;;;;0.13;100.00;99066.19;1711352;82;20146;-63
2022/03/03 02:14:19;;;;;;;;;;;;;;;0.12;100.00;99064.56;1711208;84;20169;-63
2022/03/03 02:16:45;;;;;;;;;;;;;;;0.10;100.00;99058.61;1711180;84;21105;-62
2022/03/03 02:19:19;;;;;;;;;;;;;;;0.10;100.00;99058.61;1749283;82;20154;-62
2022/03/03 02:21:55;;;;;;;;;;;;;;;0.11;100.00;99050.80;1749658;82;20170;-62
2022/03/03 02:24:20;;;;;;;;;;;;;;;0.11;100.00;99052.14;1747846;81;20178;-62
2022/03/03 02:26:48;;;;;;;;;;;;;;;0.12;100.00;99054.59;1745591;82;20147;-62
2022/03/03 02:29:16;;;;;;;;;;;;;;;0.13;100.00;99047.30;1749299;82;21058;-62
2022/03/03 02:31:44;;;;;;;;;;;;;;;0.10;100.00;99043.77;1709682;83;20140;-62
2022/03/03 02:34:12;;;;;;;;;;;;;;;0.08;100.00;99044.56;1753364;81;20169;-62
2022/03/03 02:36:40;;;;;;;;;;;;;;;0.08;100.00;99043.22;1737140;82;20135;-62
2022/03/03 02:39:06;;;;;;;;;;;;;;;0.09;100.00;99040.80;1731895;82;20163;-63
2022/03/03 02:41:33;;;;;;;;;;;;;;;0.08;100.00;99043.22;1736717;82;21026;-63
2022/03/03 02:44:02;;;;;;;;;;;;;;;0.09;100.00;99036.75;1712117;83;20128;-63
2022/03/03 02:46:30;;;;;;;;;;;;;;;0.10;100.00;99034.32;1715495;83;20139;-63
2022/03/03 02:48:56;;;;;;;;;;;;;;;0.08;100.00;99034.58;1710875;83;20206;-63
2022/03/03 02:51:23;;;;;;;;;;;;;;;0.04;100.00;99026.73;1694848;83;20172;-62
2022/03/03 02:53:49;;;;;;;;;;;;;;;0.04;100.00;99025.37;1702284;83;21126;-62
2022/03/03 02:56:15;;;;;;;;;;;;;;;0.06;100.00;99025.12;1750833;81;20186;-62
2022/03/03 02:58:42;;;;;;;;;;;;;;;0.05;100.00;99018.09;1756158;81;20117;-62
2022/03/03 03:01:08;;;;;;;;;;;;;;;0.05;100.00;99021.61;1768444;81;20129;-62
2022/03/03 03:03:35;;;;;;;;;;;;;;;0.07;100.00;99016.77;1764592;80;20137;-62
2022/03/03 03:06:03;;;;;;;;;;;;;;;0.08;100.00;99014.34;1768771;80;21135;-62
2022/03/03 03:08:30;;;;;;;;;;;;;;;0.06;100.00;99012.44;1773710;80;20080;-62
2022/03/03 03:10:56;;;;;;;;;;;;;;;0.03;100.00;99017.01;1764333;80;20169;-62
2022/03/03 03:13:23;;;;;;;;;;;;;;;0.04;100.00;99013.77;1763008;80;20145;-62
2022/03/03 03:15:49;;;;;;;;;;;;;;;0.07;100.00;99005.16;1769673;80;20638;-63
2022/03/03 03:18:18;;;;;;;;;;;;;;;0.08;100.00;99008.13;1761260;80;23325;-63
2022/03/03 03:20:46;;;;;;;;;;;;;;;0.07;100.00;99006.50;1778654;80;20144;-63
2022/03/03 03:23:14;;;;;;;;;;;;;;;0.05;100.00;99005.41;1779382;80;20105;-63
2022/03/03 03:25:43;;;;;;;;;;;;;;;0.03;100.00;99000.00;1778636;80;20474;-63
2022/03/03 03:28:10;;;;;;;;;;;;;;;0.04;100.00;99007.02;1779050;80;20594;-63
2022/03/03 03:30:38;;;;;;;;;;;;;;;0.04;100.00;99008.38;1779192;80;21131;-63
2022/03/03 03:33:07;;;;;;;;;;;;;;;0.05;100.00;99000.55;1773697;80;20152;-63
2022/03/03 03:35:33;;;;;;;;;;;;;;;0.06;100.00;99001.64;1753570;80;20211;-63
2022/03/03 03:38:00;;;;;;;;;;;;;;;0.08;100.00;98996.80;1780837;80;20495;-63
2022/03/03 03:40:26;;;;;;;;;;;;;;;0.08;100.00;98998.14;1781152;80;20438;-63
2022/03/03 03:42:52;;;;;;;;;;;;;;;0.07;100.00;98997.06;1780780;80;21817;-63
2022/03/03 03:45:19;;;;;;;;;;;;;;;0.00;100.00;98988.66;1780926;80;20108;-62
2022/03/03 03:47:45;;;;;;;;;;;;;;;-0.02;100.00;98988.13;1780911;80;20199;-62
2022/03/03 03:50:12;;;;;;;;;;;;;;;-0.05;100.00;98979.20;1780958;80;20160;-62
2022/03/03 03:52:39;;;;;;;;;;;;;;;-0.02;100.00;98979.22;1780917;80;20134;-63
2022/03/03 03:55:07;;;;;;;;;;;;;;;0.02;100.00;98978.13;1780927;80;21136;-63
2022/03/03 03:57:33;;;;;;;;;;;;;;;0.05;100.00;98978.42;1780791;80;20164;-63
2022/03/03 03:59:59;;;;;;;;;;;;;;;0.06;100.00;98973.30;1780751;80;20144;-63
2022/03/03 04:02:25;;;;;;;;;;;;;;;0.09;100.00;98967.92;1778366;80;20178;-63
2022/03/03 04:04:54;;;;;;;;;;;;;;;0.10;100.00;98968.20;1761397;81;20197;-65
2022/03/03 04:07:20;;;;;;;;;;;;;;;0.08;100.00;98967.11;1747028;82;21056;-65
2022/03/03 04:09:46;;;;;;;;;;;;;;;0.07;100.00;98969.53;1727871;83;20439;-63
2022/03/03 04:12:13;;;;;;;;;;;;;;;0.05;100.00;98963.58;1764644;80;20973;-63
2022/03/03 04:14:39;;;;;;;;;;;;;;;0.07;100.00;98964.14;1727965;81;20656;-63
2022/03/03 04:17:06;;;;;;;;;;;;;;;0.08;100.00;98968.45;1748338;81;20499;-64
2022/03/03 04:19:34;;;;;;;;;;;;;;;0.07;100.00;98960.62;1755156;80;21147;-64
2022/03/03 04:22:00;;;;;;;;;;;;;;;0.05;100.00;98960.07;1758362;81;20110;-66
2022/03/03 04:24:26;;;;;;;;;;;;;;;0.04;100.00;98961.95;1761531;81;20169;-65
2022/03/03 04:26:53;;;;;;;;;;;;;;;0.03;100.00;98955.47;1727425;83;20715;-65
2022/03/03 04:29:20;;;;;;;;;;;;;;;0.08;100.00;98958.20;1735151;82;20192;-65
2022/03/03 04:31:50;;;;;;;;;;;;;;;0.10;100.00;98953.36;1698367;84;21153;-65
2022/03/03 04:34:16;;;;;;;;;;;;;;;0.10;100.00;98950.12;1727614;83;20449;-64
2022/03/03 04:36:42;;;;;;;;;;;;;;;0.12;100.00;98957.41;1727433;83;20439;-65
2022/03/03 04:39:09;;;;;;;;;;;;;;;0.11;100.00;98950.39;1763973;81;20993;-64
2022/03/03 04:41:35;;;;;;;;;;;;;;;0.08;100.00;98950.11;1763986;81;20204;-64
2022/03/03 04:44:03;;;;;;;;;;;;;;;0.04;100.00;98951.70;1763754;81;21769;-63
2022/03/03 04:46:30;;;;;;;;;;;;;;;0.03;100.00;98950.89;1726989;83;20108;-64
2022/03/03 04:48:59;;;;;;;;;;;;;;;0.03;100.00;98951.42;1764034;81;20169;-64
2022/03/03 04:51:24;;;;;;;;;;;;;;;0.03;100.00;98948.19;1727333;83;20159;-65
2022/03/03 04:53:50;;;;;;;;;;;;;;;0.04;100.00;98951.16;1764096;81;20165;-64
2022/03/03 04:56:20;;;;;;;;;;;;;;;0.03;100.00;98952.23;1727447;82;20228;-64
2022/03/03 04:58:46;;;;;;;;;;;;;;;0.03;100.00;98952.23;1763170;81;20153;-62
2022/03/03 05:01:14;;;;;;;;;;;;;;;0.05;100.00;98953.33;1727536;83;20446;-62
2022/03/03 05:03:41;;;;;;;;;;;;;;;0.04;100.00;98951.70;1729955;81;20167;-62
2022/03/03 05:06:07;;;;;;;;;;;;;;;0.05;100.00;98950.63;1725371;83;20188;-62
2022/03/03 05:08:34;;;;;;;;;;;;;;;0.03;100.00;98955.47;1725344;83;21209;-63
2022/03/03 05:11:03;;;;;;;;;;;;;;;0.00;100.00;98952.22;1696133;84;20469;-63
2022/03/03 05:13:30;;;;;;;;;;;;;;;0.00;100.00;98953.57;1732989;81;20211;-61
2022/03/03 05:15:57;;;;;;;;;;;;;;;-0.01;100.00;98945.77;1692543;84;20174;-62
2022/03/03 05:18:27;;;;;;;;;;;;;;;0.01;100.00;98946.29;1759142;81;20182;-64
2022/03/03 05:20:53;;;;;;;;;;;;;;;0.03;100.00;98950.08;1759042;81;20717;-63
2022/03/03 05:23:20;;;;;;;;;;;;;;;0.01;100.00;98948.98;1759124;81;20460;-61
2022/03/03 05:25:46;;;;;;;;;;;;;;;0.00;100.00;98954.92;1759460;81;20449;-62
2022/03/03 05:28:12;;;;;;;;;;;;;;;0.02;100.00;98949.80;1759422;81;20134;-62
2022/03/03 05:30:39;;;;;;;;;;;;;;;0.02;100.00;98949.80;1759421;81;20155;-64
2022/03/03 05:33:05;;;;;;;;;;;;;;;0.04;100.00;98949.81;1759451;81;21109;-64
2022/03/03 05:35:36;;;;;;;;;;;;;;;0.10;100.00;98947.95;1759459;81;20452;-62
2022/03/03 05:38:03;;;;;;;;;;;;;;;0.09;100.00;98943.63;1769725;81;20141;-61
2022/03/03 05:40:31;;;;;;;;;;;;;;;0.11;100.00;98952.28;1769972;81;20190;-61
2022/03/03 05:42:59;;;;;;;;;;;;;;;0.17;100.00;98949.34;1770064;81;20154;-61
2022/03/03 05:45:26;;;;;;;;;;;;;;;0.21;100.00;98953.69;1759028;81;21211;-62
2022/03/03 05:47:52;;;;;;;;;;;;;;;0.21;100.00;98950.45;1759522;81;20433;-62
2022/03/03 05:50:20;;;;;;;;;;;;;;;0.20;100.00;98948.83;1759475;81;20610;-61
2022/03/03 05:52:47;;;;;;;;;;;;;;;0.20;100.00;98948.01;1769873;81;20789;-61
2022/03/03 05:55:13;;;;;;;;;;;;;;;0.23;100.00;98946.13;1770066;81;20468;-62
2022/03/03 05:57:46;;;;;;;;;;;;;;;0.26;100.00;98952.36;1770140;81;23389;-60
2022/03/03 06:00:15;;;;;;;;;;;;;;;0.27;100.00;98952.63;1769776;81;20102;-61
2022/03/03 06:02:48;;;;;;;;;;;;;;;0.26;100.00;98949.66;1759190;81;20170;-60
2022/03/03 06:05:24;;;;;;;;;;;;;;;0.28;100.00;98943.46;1726536;83;20172;-64
2022/03/03 06:07:53;;;;;;;;;;;;;;;0.32;100.00;98947.26;1727463;83;20138;-65
2022/03/03 06:10:23;;;;;;;;;;;;;;;0.32;100.00;98944.02;1752386;81;21109;-66
2022/03/03 06:12:52;;;;;;;;;;;;;;;0.33;100.00;98944.83;1724817;83;20097;-66
2022/03/03 06:15:22;;;;;;;;;;;;;;;0.32;100.00;98940.52;1742692;81;20924;-66
2022/03/03 06:17:49;;;;;;;;;;;;;;;0.33;100.00;98941.59;1693438;84;20178;-67
2022/03/03 06:20:18;;;;;;;;;;;;;;;0.35;100.00;98945.38;1693578;84;20197;-66
2022/03/03 06:22:46;;;;;;;;;;;;;;;0.34;100.00;98947.81;1694376;84;21151;-67
2022/03/03 06:25:13;;;;;;;;;;;;;;;0.35;100.00;98944.57;1694118;84;21558;-67
2022/03/03 06:27:39;;;;;;;;;;;;;;;0.36;100.00;98948.36;1694459;84;20500;-67
2022/03/03 06:30:07;;;;;;;;;;;;;;;0.37;100.00;98944.58;1694368;84;20166;-67
2022/03/03 06:32:33;;;;;;;;;;;;;;;0.37;100.00;98941.07;1694404;84;20210;-67
2022/03/03 06:34:59;;;;;;;;;;;;;;;0.37;100.00;98937.02;1694519;84;21070;-65
2022/03/03 06:37:26;;;;;;;;;;;;;;;0.35;100.00;98939.98;1694359;84;20104;-65
2022/03/03 06:39:53;;;;;;;;;;;;;;;0.35;100.00;98934.59;1694338;84;20143;-68
2022/03/03 06:42:19;;;;;;;;;;;;;;;0.40;100.00;98928.39;1694328;84;20171;-63
2022/03/03 06:44:45;;;;;;;;;;;;;;;0.44;100.00;98930.84;1694487;83;20179;-63
2022/03/03 06:47:11;;;;;;;;;;;;;;;0.49;100.00;98934.37;1694376;84;21170;-63
2022/03/03 06:49:37;;;;;;;;;;;;;;;0.55;100.00;98931.96;1694396;84;20479;-63
2022/03/03 06:52:06;;;;;;;;;;;;;;;0.62;100.00;98927.63;1694390;84;20175;-63
2022/03/03 06:54:35;;;;;;;;;;;;;;;0.68;100.00;98928.45;1697398;83;20566;-63
2022/03/03 06:57:01;;;;;;;;;;;;;;;0.67;100.00;98930.34;1696730;84;20452;-63
2022/03/03 06:59:29;;;;;;;;;;;;;;;0.68;100.00;98931.16;1697536;84;21162;-64
2022/03/03 07:01:59;;;;;;;;;;;;;;;0.71;100.00;98928.73;1696936;84;20500;-67
2022/03/03 07:04:26;;;;;;;;;;;;;;;0.75;100.00;98929.02;1736502;81;20178;-68
2022/03/03 07:06:53;;;;;;;;;;;;;;;0.80;100.00;98929.03;1758979;81;20190;-63
2022/03/03 07:09:21;;;;;;;;;;;;;;;0.82;100.00;98935.80;1759332;81;20174;-63
2022/03/03 07:11:48;;;;;;;;;;;;;;;0.84;100.00;98930.93;1758163;81;21104;-63
2022/03/03 07:14:15;;;;;;;;;;;;;;;0.87;100.00;98936.34;1758959;81;20198;-63
2022/03/03 07:16:57;;;;;;;;;;;;;;;0.89;100.00;98936.89;1771395;81;20452;-63
2022/03/03 07:19:39;;;;;;;;;;;;;;;0.89;100.00;98934.19;1773073;81;20149;-62
2022/03/03 07:22:21;;;;;;;;;;;;;;;0.93;100.00;98930.68;1773147;80;20437;-62
2022/03/03 07:24:50;;;;;;;;;;;;;;;0.96;100.00;98932.03;1773468;81;21784;-61
2022/03/03 07:27:21;;;;;;;;;;;;;;;1.01;100.00;98920.42;1773122;80;20437;-62
2022/03/03 07:29:57;;;;;;;;;;;;;;;1.04;100.00;98927.45;1773122;81;20119;-61
2022/03/03 07:32:27;;;;;;;;;;;;;;;1.04;100.00;98916.64;1772400;81;20174;-63
2022/03/03 07:34:56;;;;;;;;;;;;;;;1.06;100.00;98919.08;1772783;81;20432;-64
2022/03/03 07:37:36;;;;;;;;;;;;;;;1.09;100.00;98914.48;1767991;80;40039;-66
2022/03/03 07:40:07;;;;;;;;;;;;;;;1.11;100.00;98919.90;1745741;80;20127;-66
2022/03/03 07:42:35;;;;;;;;;;;;;;;1.19;100.00;98922.58;1768338;80;20125;-64
2022/03/03 07:45:03;;;;;;;;;;;;;;;1.23;100.00;98919.61;1767887;80;20220;-64
2022/03/03 07:47:32;;;;;;;;;;;;;;;1.26;100.00;98921.77;1773140;80;20994;-64
2022/03/03 07:49:58;;;;;;;;;;;;;;;1.25;100.00;98910.69;1772196;79;21123;-64
2022/03/03 07:52:26;;;;;;;;;;;;;;;1.20;100.00;98914.20;1773342;81;20145;-64
2022/03/03 07:54:53;;;;;;;;;;;;;;;1.21;100.00;98910.41;1773505;81;20113;-64
2022/03/03 07:57:21;;;;;;;;;;;;;;;1.23;100.00;98910.95;1771923;80;20177;-63
2022/03/03 07:59:56;;;;;;;;;;;;;;;1.23;100.00;98906.90;1765355;80;20201;-63
2022/03/03 08:02:23;;;;;;;;;;;;;;;1.25;100.00;98903.38;1773591;80;21144;-63
2022/03/03 08:04:54;;;;;;;;;;;;;;;1.24;100.00;98909.06;1764557;80;21648;-63
2022/03/03 08:07:20;;;;;;;;;;;;;;;1.21;100.00;98905.55;1760058;80;20440;-63
2022/03/03 08:09:47;;;;;;;;;;;;;;;1.19;100.00;98908.52;1761164;81;20880;-63
2022/03/03 08:12:14;;;;;;;;;;;;;;;1.17;100.00;98909.33;1761036;81;20580;-63
2022/03/03 08:14:41;;;;;;;;;;;;;;;1.17;100.00;98907.98;1761063;80;20532;-63
2022/03/03 08:17:08;;;;;;;;;;;;;;;1.15;100.00;98899.89;1761129;81;21675;-64
2022/03/03 08:19:34;;;;;;;;;;;;;;;1.13;100.00;98900.70;1761533;81;20174;-64
2022/03/03 08:22:00;;;;;;;;;;;;;;;1.15;100.00;98909.36;1761556;81;20595;-63
2022/03/03 08:24:26;;;;;;;;;;;;;;;1.18;100.00;98907.44;1761295;81;20131;-63
2022/03/03 08:26:54;;;;;;;;;;;;;;;1.20;100.00;98908.79;1761482;81;21120;-64
2022/03/03 08:29:21;;;;;;;;;;;;;;;1.19;100.00;98907.16;1761419;81;20176;-64
2022/03/03 08:31:50;;;;;;;;;;;;;;;1.14;100.00;98903.68;1761247;81;20177;-64
2022/03/03 08:34:35;;;;;;;;;;;;;;;1.10;100.00;98910.16;1761451;81;20308;-63
2022/03/03 08:37:03;;;;;;;;;;;;;;;1.09;100.00;98907.73;1761633;81;20170;-64
2022/03/03 08:39:29;;;;;;;;;;;;;;;1.09;100.00;98905.02;1762073;81;21111;-65
2022/03/03 08:41:57;;;;;;;;;;;;;;;1.10;100.00;98908.00;1761498;81;21075;-64
2022/03/03 08:44:34;;;;;;;;;;;;;;;1.11;100.00;98902.86;1761150;81;20138;-65
2022/03/03 08:47:03;;;;;;;;;;;;;;;1.11;100.00;98896.92;1761105;81;20780;-64
2022/03/03 08:49:31;;;;;;;;;;;;;;;1.10;100.00;98900.70;1761597;81;20222;-64
2022/03/03 08:51:58;;;;;;;;;;;;;;;1.12;100.00;98896.37;1761213;81;21869;-64
2022/03/03 08:54:26;;;;;;;;;;;;;;;1.11;100.00;98902.33;1761463;81;20444;-64
2022/03/03 08:56:52;;;;;;;;;;;;;;;1.11;100.00;98907.73;1760795;81;20098;-64
2022/03/03 08:59:20;;;;;;;;;;;;;;;1.13;100.00;98899.35;1761406;81;22205;-64
2022/03/03 09:01:46;;;;;;;;;;;;;;;1.14;100.00;98901.79;1761284;81;20194;-64
2022/03/03 09:04:13;;;;;;;;;;;;;;;1.18;100.00;98895.27;1758678;81;21139;-65
2022/03/03 09:06:39;;;;;;;;;;;;;;;1.21;100.00;98896.08;1749263;81;20129;-64
2022/03/03 09:09:06;;;;;;;;;;;;;;;1.25;100.00;98895.27;1752087;82;20111;-65
2022/03/03 09:11:33;;;;;;;;;;;;;;;1.28;100.00;98893.38;1751022;80;20729;-65
2022/03/03 09:14:00;;;;;;;;;;;;;;;1.35;100.00;98897.16;1750568;81;20180;-64
2022/03/03 09:16:27;;;;;;;;;;;;;;;1.37;100.00;98895.00;1750657;80;22029;-64
2022/03/03 09:18:56;;;;;;;;;;;;;;;1.43;100.00;98899.86;1751496;82;20819;-65
2022/03/03 09:21:23;;;;;;;;;;;;;;;1.45;100.00;98899.86;1750666;82;20115;-65
2022/03/03 09:23:49;;;;;;;;;;;;;;;1.48;100.00;98902.02;1750798;82;20441;-65
2022/03/03 09:26:16;;;;;;;;;;;;;;;1.51;100.00;98906.08;1750499;82;20320;-65
2022/03/03 09:28:46;;;;;;;;;;;;;;;1.50;100.00;98905.27;1750829;82;20472;-65
2022/03/03 09:31:14;;;;;;;;;;;;;;;1.49;100.00;98903.65;1751665;82;20119;-64
2022/03/03 09:33:41;;;;;;;;;;;;;;;1.47;100.00;98911.22;1751550;81;20488;-65
2022/03/03 09:36:08;;;;;;;;;;;;;;;1.39;100.00;98900.95;1750727;82;20200;-65
2022/03/03 09:38:35;;;;;;;;;;;;;;;1.39;100.00;98905.55;1750627;82;20468;-65
2022/03/03 09:41:03;;;;;;;;;;;;;;;1.41;100.00;98907.44;1750519;82;21768;-65
2022/03/03 09:43:33;;;;;;;;;;;;;;;1.40;100.00;98907.17;1750223;82;20142;-65
2022/03/03 09:46:01;;;;;;;;;;;;;;;1.40;100.00;98904.47;1750047;82;20142;-65
2022/03/03 09:48:28;;;;;;;;;;;;;;;1.41;100.00;98895.27;1750651;81;20135;-64
2022/03/03 09:50:56;;;;;;;;;;;;;;;1.46;100.00;98896.08;1747201;82;20182;-65
2022/03/03 09:53:22;;;;;;;;;;;;;;;1.50;100.00;98890.39;1750537;82;21115;-65
2022/03/03 09:55:49;;;;;;;;;;;;;;;1.57;100.00;98886.87;1750616;82;20496;-65
2022/03/03 09:58:19;;;;;;;;;;;;;;;1.61;100.00;98885.23;1750641;82;20130;-64
2022/03/03 10:00:47;;;;;;;;;;;;;;;1.63;100.00;98887.67;1750627;81;20261;-65
2022/03/03 10:03:17;;;;;;;;;;;;;;;1.67;100.00;98884.69;1751225;81;20173;-65
2022/03/03 10:05:47;;;;;;;;;;;;;;;1.68;100.00;98884.96;1771194;80;21061;-64
2022/03/03 10:08:17;;;;;;;;;;;;;;;1.68;100.00;98885.50;1776565;80;20434;-64
2022/03/03 10:10:46;;;;;;;;;;;;;;;1.71;100.00;98884.95;1766047;80;20133;-64
2022/03/03 10:13:16;;;;;;;;;;;;;;;1.76;100.00;98878.14;1769044;79;20135;-64
2022/03/03 10:15:46;;;;;;;;;;;;;;;1.84;100.00;98889.23;1774344;80;20469;-64
2022/03/03 10:18:14;;;;;;;;;;;;;;;1.86;100.00;98883.00;1768744;80;21147;-64
2022/03/03 10:20:49;;;;;;;;;;;;;;;1.89;100.00;98879.73;1770554;80;20144;-64
2022/03/03 10:23:17;;;;;;;;;;;;;;;1.96;100.00;98874.84;1769122;80;20137;-64
2022/03/03 10:25:47;;;;;;;;;;;;;;;2.04;100.00;98876.17;1778019;80;22083;-64
2022/03/03 10:28:23;;;;;;;;;;;;;;;2.15;100.00;98872.89;1768546;80;20145;-64
2022/03/03 10:31:02;;;;;;;;;;;;;;;2.16;100.00;98867.74;1771721;80;21106;-65
2022/03/03 10:33:35;;;;;;;;;;;;;;;2.14;100.00;98876.69;1776355;80;20107;-65
2022/03/03 10:36:05;;;;;;;;;;;;;;;2.14;100.00;98860.44;1765324;80;20470;-65
2022/03/03 10:38:35;;;;;;;;;;;;;;;2.09;100.00;98865.33;1764750;80;20171;-64
2022/03/03 10:41:02;;;;;;;;;;;;;;;2.02;100.00;98860.75;1772855;80;20168;-65
2022/03/03 10:43:33;;;;;;;;;;;;;;;2.04;100.00;98868.59;1771549;80;21026;-65
2022/03/03 10:46:02;;;;;;;;;;;;;;;2.01;100.00;98863.19;1765392;80;20140;-65
2022/03/03 10:48:29;;;;;;;;;;;;;;;1.98;100.00;98863.74;1769597;80;20128;-65
2022/03/03 10:51:00;;;;;;;;;;;;;;;2.01;100.00;98859.67;1772301;80;20191;-65
2022/03/03 10:53:27;;;;;;;;;;;;;;;2.05;100.00;98856.69;1775946;80;20490;-65
2022/03/03 10:56:07;;;;;;;;;;;;;;;2.04;100.00;98851.81;1764669;80;21136;-65
2022/03/03 10:58:49;;;;;;;;;;;;;;;2.03;100.00;98859.66;1773906;80;20183;-65
2022/03/03 11:01:19;;;;;;;;;;;;;;;1.99;100.00;98852.64;1764789;80;20137;-65
2022/03/03 11:03:49;;;;;;;;;;;;;;;1.99;100.00;98852.64;1769255;80;20215;-66
2022/03/03 11:06:16;;;;;;;;;;;;;;;2.04;100.00;98858.58;1775800;79;20209;-65
2022/03/03 11:08:46;;;;;;;;;;;;;;;2.11;100.00;98859.09;1764133;79;21209;-64
2022/03/03 11:11:13;;;;;;;;;;;;;;;2.16;100.00;98850.95;1723177;81;20116;-65
2022/03/03 11:13:44;;;;;;;;;;;;;;;2.17;100.00;98856.63;1697011;84;20147;-65
2022/03/03 11:16:18;;;;;;;;;;;;;;;2.17;100.00;98847.70;1734827;81;20119;-64
2022/03/03 11:18:44;;;;;;;;;;;;;;;2.16;100.00;98844.72;1742713;80;20144;-66
2022/03/03 11:21:13;;;;;;;;;;;;;;;2.14;100.00;98840.13;1750422;82;21142;-69
2022/03/03 11:23:54;;;;;;;;;;;;;;;2.11;100.00;98841.50;1749750;82;20204;-69
2022/03/03 11:26:30;;;;;;;;;;;;;;;2.11;100.00;98841.50;1703742;83;20125;-71
2022/03/03 11:29:15;;;;;;;;;;;;;;;2.10;100.00;98843.94;1713782;83;20136;-69
2022/03/03 11:32:11;;;;;;;;;;;;;;;2.12;100.00;98841.77;1713489;83;20455;-65
2022/03/03 11:34:36;;;;;;;;;;;;;;;2.15;100.00;98837.14;1714404;83;21174;-66
2022/03/03 11:37:09;;;;;;;;;;;;;;;2.23;100.00;98835.76;1712914;83;20209;-65
2022/03/03 11:39:49;;;;;;;;;;;;;;;2.25;100.00;98832.23;1694029;83;20089;-66
2022/03/03 11:42:18;;;;;;;;;;;;;;;2.29;100.00;98830.03;1711914;83;20146;-67
2022/03/03 11:44:52;;;;;;;;;;;;;;;2.41;100.00;98830.22;1713353;83;20157;-64
2022/03/03 11:47:25;;;;;;;;;;;;;;;2.45;100.00;98823.96;1694576;83;20444;-61
2022/03/03 11:50:06;;;;;;;;;;;;;;;2.49;100.00;98830.44;1692905;83;20203;-61
2022/03/03 11:52:38;;;;;;;;;;;;;;;2.50;100.00;98825.83;1691528;85;20160;-61
2022/03/03 11:55:33;;;;;;;;;;;;;;;2.48;100.00;98826.11;1720634;83;20196;-61
2022/03/03 11:58:02;;;;;;;;;;;;;;;2.50;100.00;98829.89;1720621;83;20474;-62
2022/03/03 12:00:31;;;;;;;;;;;;;;;2.46;100.00;98827.48;1720760;83;21209;-62
2022/03/03 12:03:17;;;;;;;;;;;;;;;2.48;100.00;98832.88;1720444;83;20089;-62
2022/03/03 12:05:47;;;;;;;;;;;;;;;2.53;100.00;98831.50;1700859;83;20984;-62
2022/03/03 12:08:18;;;;;;;;;;;;;;;2.58;100.00;98824.70;1725069;82;20677;-62
2022/03/03 12:11:00;;;;;;;;;;;;;;;2.59;100.00;98824.96;1712258;83;20490;-61
2022/03/03 12:13:38;;;;;;;;;;;;;;;2.60;100.00;98825.22;1701408;83;20980;-61
2022/03/03 12:16:25;;;;;;;;;;;;;;;2.62;100.00;98820.88;1731553;82;20163;-61
2022/03/03 12:19:03;;;;;;;;;;;;;;;2.59;99.81;98818.73;1739993;82;20444;-61
2022/03/03 12:21:35;;;;;;;;;;;;;;;2.53;100.00;98822.56;1740839;82;20651;-62
2022/03/03 12:24:28;;;;;;;;;;;;;;;2.51;100.00;98827.45;1740644;82;20187;-62
2022/03/03 12:26:56;;;;;;;;;;;;;;;2.54;100.00;98822.28;1740833;82;21164;-60
2022/03/03 12:29:34;;;;;;;;;;;;;;;2.55;100.00;98821.19;1723191;82;20115;-61
2022/03/03 12:32:33;;;;;;;;;;;;;;;2.59;100.00;98818.73;1739818;82;20889;-61
2022/03/03 12:35:17;;;;;;;;;;;;;;;2.61;100.00;98823.33;1739506;82;20166;-61
2022/03/03 12:37:45;;;;;;;;;;;;;;;2.66;100.00;98813.80;1723345;82;20163;-61
2022/03/03 12:40:14;;;;;;;;;;;;;;;2.74;100.00;98816.46;1740633;81;21129;-61
2022/03/03 12:42:44;;;;;;;;;;;;;;;2.83;100.00;98818.84;1740557;81;20127;-61
2022/03/03 12:45:14;;;;;;;;;;;;;;;2.91;100.00;98813.59;1740599;82;20127;-62
2022/03/03 12:47:48;;;;;;;;;;;;;;;2.95;100.00;98820.61;1694338;83;20199;-62
2022/03/03 12:50:20;;;;;;;;;;;;;;;2.97;100.00;98817.07;1692823;84;20155;-62
2022/03/03 12:53:08;;;;;;;;;;;;;;;2.94;100.00;98816.28;1698669;84;21111;-62
2022/03/03 12:55:54;;;;;;;;;;;;;;;2.95;100.00;98816.55;1720146;82;20978;-62
2022/03/03 12:58:19;;;;;;;;;;;;;;;2.92;99.58;98819.83;1698832;83;20454;-63